sensor_id;sensor_type;location;lat;lon;timestamp;P1;durP1;ratioP1;P2;durP2;ratioP2
21886;SDS011;11108;49.988;8.182;2023-09-19T00:02:16;1.00;;;1.00;;
21886;SDS011;11108;49.988;8.182;2023-09-19T00:04:41;1.05;;;1.05;;
21886;SDS011;11108;49.988;8.182;2023-09-19T00:07:08;1.40;;;1.30;;
21886;SDS011;11108;49.988;8.182;2023-09-19T00:09:34;1.13;;;1.13;;
21886;SDS011;11108;49.988;8.182;2023-09-19T00:12:03;1.67;;;1.10;;
21886;SDS011;11108;49.988;8.182;2023-09-19T00:14:28;1.20;;;1.10;;
21886;SDS011;11108;49.988;8.182;2023-09-19T00:16:53;0.82;;;0.82;;
21886;SDS011;11108;49.988;8.182;2023-09-19T00:19:19;1.20;;;1.10;;
21886;SDS011;11108;49.988;8.182;2023-09-19T00:21:44;1.10;;;1.00;;
21886;SDS011;11108;49.988;8.182;2023-09-19T00:24:10;2.78;;;1.33;;
21886;SDS011;11108;49.988;8.182;2023-09-19T00:26:36;1.08;;;1.08;;
21886;SDS011;11108;49.988;8.182;2023-09-19T00:29:03;1.00;;;1.00;;
21886;SDS011;11108;49.988;8.182;2023-09-19T00:31:28;1.00;;;1.00;;
21886;SDS011;11108;49.988;8.182;2023-09-19T00:33:55;1.13;;;1.13;;
21886;SDS011;11108;49.988;8.182;2023-09-19T00:36:22;1.15;;;1.15;;
21886;SDS011;11108;49.988;8.182;2023-09-19T00:38:48;1.23;;;1.23;;
21886;SDS011;11108;49.988;8.182;2023-09-19T00:41:13;1.30;;;1.20;;
21886;SDS011;11108;49.988;8.182;2023-09-19T00:43:38;1.17;;;1.05;;
21886;SDS011;11108;49.988;8.182;2023-09-19T00:46:05;1.65;;;1.20;;
21886;SDS011;11108;49.988;8.182;2023-09-19T00:48:31;0.70;;;0.70;;
21886;SDS011;11108;49.988;8.182;2023-09-19T00:50:57;1.23;;;1.15;;
21886;SDS011;11108;49.988;8.182;2023-09-19T00:53:23;0.90;;;0.85;;
21886;SDS011;11108;49.988;8.182;2023-09-19T00:55:50;1.00;;;1.00;;
21886;SDS011;11108;49.988;8.182;2023-09-19T00:58:16;0.90;;;0.90;;
21886;SDS011;11108;49.988;8.182;2023-09-19T01:00:42;1.25;;;1.20;;
21886;SDS011;11108;49.988;8.182;2023-09-19T01:03:09;1.17;;;1.17;;
21886;SDS011;11108;49.988;8.182;2023-09-19T01:05:35;1.08;;;1.08;;
21886;SDS011;11108;49.988;8.182;2023-09-19T01:08:00;1.30;;;1.20;;
21886;SDS011;11108;49.988;8.182;2023-09-19T01:10:26;1.00;;;1.00;;
21886;SDS011;11108;49.988;8.182;2023-09-19T01:13:05;1.60;;;1.00;;
21886;SDS011;11108;49.988;8.182;2023-09-19T01:20:39;1.13;;;1.00;;
21886;SDS011;11108;49.988;8.182;2023-09-19T01:23:17;1.73;;;1.08;;
21886;SDS011;11108;49.988;8.182;2023-09-19T01:30:39;0.93;;;0.93;;
21886;SDS011;11108;49.988;8.182;2023-09-19T01:33:05;0.95;;;0.95;;
21886;SDS011;11108;49.988;8.182;2023-09-19T01:35:31;1.10;;;1.10;;
21886;SDS011;11108;49.988;8.182;2023-09-19T01:37:57;1.27;;;0.90;;
21886;SDS011;11108;49.988;8.182;2023-09-19T01:40:23;0.90;;;0.90;;
21886;SDS011;11108;49.988;8.182;2023-09-19T01:42:57;1.45;;;0.93;;
21886;SDS011;11108;49.988;8.182;2023-09-19T01:47:52;0.82;;;0.82;;
21886;SDS011;11108;49.988;8.182;2023-09-19T01:50:34;0.90;;;0.90;;
21886;SDS011;11108;49.988;8.182;2023-09-19T01:53:23;0.90;;;0.90;;
21886;SDS011;11108;49.988;8.182;2023-09-19T01:55:50;1.00;;;1.00;;
21886;SDS011;11108;49.988;8.182;2023-09-19T01:58:18;0.80;;;0.80;;
21886;SDS011;11108;49.988;8.182;2023-09-19T02:00:46;2.00;;;1.40;;
21886;SDS011;11108;49.988;8.182;2023-09-19T02:03:13;1.75;;;0.90;;
21886;SDS011;11108;49.988;8.182;2023-09-19T02:05:38;0.93;;;0.93;;
21886;SDS011;11108;49.988;8.182;2023-09-19T02:08:04;0.80;;;0.80;;
21886;SDS011;11108;49.988;8.182;2023-09-19T02:10:29;0.80;;;0.80;;
21886;SDS011;11108;49.988;8.182;2023-09-19T02:12:55;0.88;;;0.88;;
21886;SDS011;11108;49.988;8.182;2023-09-19T02:15:21;0.80;;;0.80;;
21886;SDS011;11108;49.988;8.182;2023-09-19T02:17:47;1.08;;;0.80;;
21886;SDS011;11108;49.988;8.182;2023-09-19T02:20:12;0.95;;;0.95;;
21886;SDS011;11108;49.988;8.182;2023-09-19T02:22:38;1.40;;;1.10;;
21886;SDS011;11108;49.988;8.182;2023-09-19T02:25:04;0.73;;;0.73;;
21886;SDS011;11108;49.988;8.182;2023-09-19T02:27:29;0.90;;;0.90;;
21886;SDS011;11108;49.988;8.182;2023-09-19T02:29:55;1.80;;;1.20;;
21886;SDS011;11108;49.988;8.182;2023-09-19T02:32:20;0.80;;;0.80;;
21886;SDS011;11108;49.988;8.182;2023-09-19T02:34:46;0.90;;;0.90;;
21886;SDS011;11108;49.988;8.182;2023-09-19T02:37:11;1.13;;;1.08;;
21886;SDS011;11108;49.988;8.182;2023-09-19T02:39:38;0.70;;;0.70;;
21886;SDS011;11108;49.988;8.182;2023-09-19T02:42:04;0.90;;;0.90;;
21886;SDS011;11108;49.988;8.182;2023-09-19T02:44:29;0.93;;;0.93;;
21886;SDS011;11108;49.988;8.182;2023-09-19T02:46:54;1.00;;;1.00;;
21886;SDS011;11108;49.988;8.182;2023-09-19T02:49:20;1.10;;;1.00;;
21886;SDS011;11108;49.988;8.182;2023-09-19T02:51:45;1.00;;;0.93;;
21886;SDS011;11108;49.988;8.182;2023-09-19T02:54:13;0.90;;;0.90;;
21886;SDS011;11108;49.988;8.182;2023-09-19T02:56:38;0.77;;;0.77;;
21886;SDS011;11108;49.988;8.182;2023-09-19T02:59:04;1.17;;;0.90;;
21886;SDS011;11108;49.988;8.182;2023-09-19T03:01:29;0.70;;;0.70;;
21886;SDS011;11108;49.988;8.182;2023-09-19T03:03:54;0.95;;;0.93;;
21886;SDS011;11108;49.988;8.182;2023-09-19T03:06:20;0.70;;;0.70;;
21886;SDS011;11108;49.988;8.182;2023-09-19T03:08:45;0.80;;;0.80;;
21886;SDS011;11108;49.988;8.182;2023-09-19T03:11:12;1.55;;;1.15;;
21886;SDS011;11108;49.988;8.182;2023-09-19T03:13:39;1.02;;;1.02;;
21886;SDS011;11108;49.988;8.182;2023-09-19T03:16:04;1.23;;;1.00;;
21886;SDS011;11108;49.988;8.182;2023-09-19T03:18:31;0.80;;;0.80;;
21886;SDS011;11108;49.988;8.182;2023-09-19T03:20:57;0.80;;;0.80;;
21886;SDS011;11108;49.988;8.182;2023-09-19T03:23:24;1.17;;;1.17;;
21886;SDS011;11108;49.988;8.182;2023-09-19T03:25:51;0.90;;;0.90;;
21886;SDS011;11108;49.988;8.182;2023-09-19T03:28:17;1.13;;;1.10;;
21886;SDS011;11108;49.988;8.182;2023-09-19T03:30:42;0.60;;;0.60;;
21886;SDS011;11108;49.988;8.182;2023-09-19T03:33:08;0.98;;;0.98;;
21886;SDS011;11108;49.988;8.182;2023-09-19T03:35:35;0.87;;;0.80;;
21886;SDS011;11108;49.988;8.182;2023-09-19T03:38:01;0.88;;;0.88;;
21886;SDS011;11108;49.988;8.182;2023-09-19T03:40:28;0.82;;;0.82;;
21886;SDS011;11108;49.988;8.182;2023-09-19T03:42:53;1.13;;;1.00;;
21886;SDS011;11108;49.988;8.182;2023-09-19T03:45:18;0.87;;;0.87;;
21886;SDS011;11108;49.988;8.182;2023-09-19T03:47:43;0.90;;;0.90;;
21886;SDS011;11108;49.988;8.182;2023-09-19T03:50:09;1.17;;;1.08;;
21886;SDS011;11108;49.988;8.182;2023-09-19T03:52:35;0.83;;;0.83;;
21886;SDS011;11108;49.988;8.182;2023-09-19T03:55:01;1.00;;;0.80;;
21886;SDS011;11108;49.988;8.182;2023-09-19T03:57:28;0.98;;;0.82;;
21886;SDS011;11108;49.988;8.182;2023-09-19T03:59:53;2.27;;;1.00;;
21886;SDS011;11108;49.988;8.182;2023-09-19T04:02:20;1.40;;;0.90;;
21886;SDS011;11108;49.988;8.182;2023-09-19T04:04:49;0.95;;;0.95;;
21886;SDS011;11108;49.988;8.182;2023-09-19T04:07:14;0.80;;;0.80;;
21886;SDS011;11108;49.988;8.182;2023-09-19T04:09:40;0.90;;;0.90;;
21886;SDS011;11108;49.988;8.182;2023-09-19T04:12:05;0.90;;;0.90;;
21886;SDS011;11108;49.988;8.182;2023-09-19T04:14:30;2.20;;;0.77;;
21886;SDS011;11108;49.988;8.182;2023-09-19T04:16:55;0.85;;;0.80;;
21886;SDS011;11108;49.988;8.182;2023-09-19T04:19:21;1.00;;;1.00;;
21886;SDS011;11108;49.988;8.182;2023-09-19T04:21:48;1.13;;;0.93;;
21886;SDS011;11108;49.988;8.182;2023-09-19T04:24:13;0.80;;;0.80;;
21886;SDS011;11108;49.988;8.182;2023-09-19T04:26:38;1.05;;;0.90;;
21886;SDS011;11108;49.988;8.182;2023-09-19T04:29:04;1.00;;;1.00;;
21886;SDS011;11108;49.988;8.182;2023-09-19T04:31:30;0.88;;;0.88;;
21886;SDS011;11108;49.988;8.182;2023-09-19T04:33:56;1.20;;;1.10;;
21886;SDS011;11108;49.988;8.182;2023-09-19T04:36:21;1.30;;;0.70;;
21886;SDS011;11108;49.988;8.182;2023-09-19T04:38:47;1.02;;;0.85;;
21886;SDS011;11108;49.988;8.182;2023-09-19T04:41:13;0.85;;;0.85;;
21886;SDS011;11108;49.988;8.182;2023-09-19T04:43:40;1.17;;;1.17;;
21886;SDS011;11108;49.988;8.182;2023-09-19T04:46:05;0.90;;;0.90;;
21886;SDS011;11108;49.988;8.182;2023-09-19T04:48:32;0.93;;;0.90;;
21886;SDS011;11108;49.988;8.182;2023-09-19T04:50:59;0.90;;;0.90;;
21886;SDS011;11108;49.988;8.182;2023-09-19T04:53:24;0.90;;;0.90;;
21886;SDS011;11108;49.988;8.182;2023-09-19T04:55:50;0.85;;;0.85;;
21886;SDS011;11108;49.988;8.182;2023-09-19T04:58:17;1.00;;;0.90;;
21886;SDS011;11108;49.988;8.182;2023-09-19T05:00:42;0.80;;;0.80;;
21886;SDS011;11108;49.988;8.182;2023-09-19T05:03:08;0.80;;;0.80;;
21886;SDS011;11108;49.988;8.182;2023-09-19T05:05:34;0.90;;;0.90;;
21886;SDS011;11108;49.988;8.182;2023-09-19T05:07:59;0.70;;;0.70;;
21886;SDS011;11108;49.988;8.182;2023-09-19T05:10:25;1.10;;;1.10;;
21886;SDS011;11108;49.988;8.182;2023-09-19T05:12:52;1.00;;;1.00;;
21886;SDS011;11108;49.988;8.182;2023-09-19T05:15:17;1.37;;;1.27;;
21886;SDS011;11108;49.988;8.182;2023-09-19T05:17:49;0.80;;;0.80;;
21886;SDS011;11108;49.988;8.182;2023-09-19T05:20:16;0.93;;;0.93;;
21886;SDS011;11108;49.988;8.182;2023-09-19T05:22:41;0.80;;;0.80;;
21886;SDS011;11108;49.988;8.182;2023-09-19T05:25:08;0.75;;;0.75;;
21886;SDS011;11108;49.988;8.182;2023-09-19T05:27:33;0.75;;;0.73;;
21886;SDS011;11108;49.988;8.182;2023-09-19T05:29:58;0.90;;;0.90;;
21886;SDS011;11108;49.988;8.182;2023-09-19T05:32:24;0.90;;;0.90;;
21886;SDS011;11108;49.988;8.182;2023-09-19T05:34:49;0.85;;;0.85;;
21886;SDS011;11108;49.988;8.182;2023-09-19T05:37:18;1.00;;;1.00;;
21886;SDS011;11108;49.988;8.182;2023-09-19T05:39:43;1.05;;;1.00;;
21886;SDS011;11108;49.988;8.182;2023-09-19T05:42:08;1.30;;;1.00;;
21886;SDS011;11108;49.988;8.182;2023-09-19T05:44:34;1.10;;;1.10;;
21886;SDS011;11108;49.988;8.182;2023-09-19T05:47:00;0.73;;;0.73;;
21886;SDS011;11108;49.988;8.182;2023-09-19T05:49:26;0.95;;;0.90;;
21886;SDS011;11108;49.988;8.182;2023-09-19T05:51:52;1.07;;;1.00;;
21886;SDS011;11108;49.988;8.182;2023-09-19T05:54:20;0.85;;;0.85;;
21886;SDS011;11108;49.988;8.182;2023-09-19T05:56:45;0.90;;;0.90;;
21886;SDS011;11108;49.988;8.182;2023-09-19T05:59:12;0.90;;;0.90;;
21886;SDS011;11108;49.988;8.182;2023-09-19T06:01:40;1.00;;;1.00;;
21886;SDS011;11108;49.988;8.182;2023-09-19T06:04:05;0.88;;;0.88;;
21886;SDS011;11108;49.988;8.182;2023-09-19T06:06:30;1.52;;;0.90;;
21886;SDS011;11108;49.988;8.182;2023-09-19T06:08:56;1.02;;;1.02;;
21886;SDS011;11108;49.988;8.182;2023-09-19T06:11:22;1.37;;;1.03;;
21886;SDS011;11108;49.988;8.182;2023-09-19T06:13:50;1.00;;;1.00;;
21886;SDS011;11108;49.988;8.182;2023-09-19T06:16:16;1.17;;;1.10;;
21886;SDS011;11108;49.988;8.182;2023-09-19T06:18:43;1.35;;;1.25;;
21886;SDS011;11108;49.988;8.182;2023-09-19T06:21:08;0.90;;;0.90;;
21886;SDS011;11108;49.988;8.182;2023-09-19T06:23:34;1.02;;;1.02;;
21886;SDS011;11108;49.988;8.182;2023-09-19T06:26:00;1.13;;;1.13;;
21886;SDS011;11108;49.988;8.182;2023-09-19T06:28:25;1.20;;;1.20;;
21886;SDS011;11108;49.988;8.182;2023-09-19T06:30:53;0.93;;;0.93;;
21886;SDS011;11108;49.988;8.182;2023-09-19T06:33:18;0.90;;;0.90;;
21886;SDS011;11108;49.988;8.182;2023-09-19T06:35:45;1.08;;;1.08;;
21886;SDS011;11108;49.988;8.182;2023-09-19T06:38:12;1.10;;;1.10;;
21886;SDS011;11108;49.988;8.182;2023-09-19T06:40:38;1.58;;;1.10;;
21886;SDS011;11108;49.988;8.182;2023-09-19T06:43:03;1.00;;;0.90;;
21886;SDS011;11108;49.988;8.182;2023-09-19T06:45:30;1.13;;;0.90;;
21886;SDS011;11108;49.988;8.182;2023-09-19T06:47:56;1.27;;;1.05;;
21886;SDS011;11108;49.988;8.182;2023-09-19T06:50:22;1.08;;;1.05;;
21886;SDS011;11108;49.988;8.182;2023-09-19T06:52:48;1.42;;;1.33;;
21886;SDS011;11108;49.988;8.182;2023-09-19T06:55:15;1.30;;;1.20;;
21886;SDS011;11108;49.988;8.182;2023-09-19T06:57:41;1.50;;;1.00;;
21886;SDS011;11108;49.988;8.182;2023-09-19T07:00:08;1.73;;;1.08;;
21886;SDS011;11108;49.988;8.182;2023-09-19T07:02:40;1.52;;;1.17;;
21886;SDS011;11108;49.988;8.182;2023-09-19T07:05:06;0.95;;;0.95;;
21886;SDS011;11108;49.988;8.182;2023-09-19T07:07:32;0.90;;;0.90;;
21886;SDS011;11108;49.988;8.182;2023-09-19T07:09:59;1.10;;;1.00;;
21886;SDS011;11108;49.988;8.182;2023-09-19T07:12:25;1.10;;;1.00;;
21886;SDS011;11108;49.988;8.182;2023-09-19T07:14:50;1.00;;;1.00;;
21886;SDS011;11108;49.988;8.182;2023-09-19T07:17:15;1.08;;;1.08;;
21886;SDS011;11108;49.988;8.182;2023-09-19T07:19:43;0.90;;;0.90;;
21886;SDS011;11108;49.988;8.182;2023-09-19T07:22:09;0.80;;;0.80;;
21886;SDS011;11108;49.988;8.182;2023-09-19T07:24:34;0.90;;;0.90;;
21886;SDS011;11108;49.988;8.182;2023-09-19T07:27:01;2.30;;;1.40;;
21886;SDS011;11108;49.988;8.182;2023-09-19T07:29:27;1.38;;;1.15;;
21886;SDS011;11108;49.988;8.182;2023-09-19T07:31:52;1.52;;;1.25;;
21886;SDS011;11108;49.988;8.182;2023-09-19T07:34:17;2.65;;;1.60;;
21886;SDS011;11108;49.988;8.182;2023-09-19T07:36:43;3.90;;;1.60;;
21886;SDS011;11108;49.988;8.182;2023-09-19T07:39:08;1.52;;;1.10;;
21886;SDS011;11108;49.988;8.182;2023-09-19T07:41:34;3.00;;;1.25;;
21886;SDS011;11108;49.988;8.182;2023-09-19T07:43:59;1.70;;;1.25;;
21886;SDS011;11108;49.988;8.182;2023-09-19T07:46:24;4.15;;;1.70;;
21886;SDS011;11108;49.988;8.182;2023-09-19T07:48:51;2.78;;;1.40;;
21886;SDS011;11108;49.988;8.182;2023-09-19T07:51:16;2.13;;;1.13;;
21886;SDS011;11108;49.988;8.182;2023-09-19T07:53:42;4.05;;;1.55;;
21886;SDS011;11108;49.988;8.182;2023-09-19T07:56:08;4.80;;;1.70;;
21886;SDS011;11108;49.988;8.182;2023-09-19T07:58:33;3.47;;;1.50;;
21886;SDS011;11108;49.988;8.182;2023-09-19T08:01:05;1.30;;;1.20;;
21886;SDS011;11108;49.988;8.182;2023-09-19T08:03:31;2.75;;;1.30;;
21886;SDS011;11108;49.988;8.182;2023-09-19T08:05:57;3.42;;;1.50;;
21886;SDS011;11108;49.988;8.182;2023-09-19T08:08:25;5.68;;;1.70;;
21886;SDS011;11108;49.988;8.182;2023-09-19T08:10:54;4.38;;;1.70;;
21886;SDS011;11108;49.988;8.182;2023-09-19T08:13:21;1.80;;;1.30;;
21886;SDS011;11108;49.988;8.182;2023-09-19T08:15:46;4.35;;;1.67;;
21886;SDS011;11108;49.988;8.182;2023-09-19T08:18:13;4.43;;;1.55;;
21886;SDS011;11108;49.988;8.182;2023-09-19T08:20:38;2.00;;;1.60;;
21886;SDS011;11108;49.988;8.182;2023-09-19T08:23:03;1.85;;;1.13;;
21886;SDS011;11108;49.988;8.182;2023-09-19T08:25:29;2.65;;;1.27;;
21886;SDS011;11108;49.988;8.182;2023-09-19T08:27:54;2.22;;;1.33;;
21886;SDS011;11108;49.988;8.182;2023-09-19T08:30:22;1.57;;;1.40;;
21886;SDS011;11108;49.988;8.182;2023-09-19T08:32:56;3.42;;;1.77;;
21886;SDS011;11108;49.988;8.182;2023-09-19T08:35:23;2.53;;;1.70;;
21886;SDS011;11108;49.988;8.182;2023-09-19T08:37:48;1.35;;;1.25;;
21886;SDS011;11108;49.988;8.182;2023-09-19T08:40:13;1.60;;;1.33;;
21886;SDS011;11108;49.988;8.182;2023-09-19T08:45:14;1.55;;;1.27;;
21886;SDS011;11108;49.988;8.182;2023-09-19T08:47:42;3.40;;;1.40;;
21886;SDS011;11108;49.988;8.182;2023-09-19T08:50:22;1.60;;;1.10;;
21886;SDS011;11108;49.988;8.182;2023-09-19T08:52:51;2.60;;;1.60;;
21886;SDS011;11108;49.988;8.182;2023-09-19T08:55:19;4.22;;;1.60;;
21886;SDS011;11108;49.988;8.182;2023-09-19T08:57:49;2.00;;;1.40;;
21886;SDS011;11108;49.988;8.182;2023-09-19T09:00:15;1.58;;;1.48;;
21886;SDS011;11108;49.988;8.182;2023-09-19T09:02:42;1.98;;;1.20;;
21886;SDS011;11108;49.988;8.182;2023-09-19T09:05:08;1.17;;;1.00;;
21886;SDS011;11108;49.988;8.182;2023-09-19T09:07:35;1.83;;;1.23;;
21886;SDS011;11108;49.988;8.182;2023-09-19T09:10:02;2.08;;;1.27;;
21886;SDS011;11108;49.988;8.182;2023-09-19T09:12:27;1.30;;;1.20;;
21886;SDS011;11108;49.988;8.182;2023-09-19T09:14:54;1.83;;;1.40;;
21886;SDS011;11108;49.988;8.182;2023-09-19T09:17:19;1.45;;;1.20;;
21886;SDS011;11108;49.988;8.182;2023-09-19T09:19:45;1.70;;;1.55;;
21886;SDS011;11108;49.988;8.182;2023-09-19T09:22:10;1.90;;;1.45;;
21886;SDS011;11108;49.988;8.182;2023-09-19T09:24:36;1.50;;;1.40;;
21886;SDS011;11108;49.988;8.182;2023-09-19T09:27:04;1.40;;;1.27;;
21886;SDS011;11108;49.988;8.182;2023-09-19T09:29:49;1.45;;;1.35;;
21886;SDS011;11108;49.988;8.182;2023-09-19T09:32:18;1.58;;;1.25;;
21886;SDS011;11108;49.988;8.182;2023-09-19T09:34:45;1.70;;;1.35;;
21886;SDS011;11108;49.988;8.182;2023-09-19T09:37:14;1.40;;;1.27;;
21886;SDS011;11108;49.988;8.182;2023-09-19T09:40:03;0.90;;;0.90;;
21886;SDS011;11108;49.988;8.182;2023-09-19T09:42:41;1.77;;;1.33;;
21886;SDS011;11108;49.988;8.182;2023-09-19T09:45:22;2.28;;;1.23;;
21886;SDS011;11108;49.988;8.182;2023-09-19T09:47:56;1.80;;;1.30;;
21886;SDS011;11108;49.988;8.182;2023-09-19T09:50:31;2.03;;;1.27;;
21886;SDS011;11108;49.988;8.182;2023-09-19T09:53:21;2.38;;;1.58;;
21886;SDS011;11108;49.988;8.182;2023-09-19T09:58:24;40.58;;;17.75;;
21886;SDS011;11108;49.988;8.182;2023-09-19T10:00:54;89.65;;;45.22;;
21886;SDS011;11108;49.988;8.182;2023-09-19T10:03:31;157.25;;;114.85;;
21886;SDS011;11108;49.988;8.182;2023-09-19T10:05:56;136.73;;;101.25;;
21886;SDS011;11108;49.988;8.182;2023-09-19T10:08:23;101.38;;;74.60;;
21886;SDS011;11108;49.988;8.182;2023-09-19T10:10:48;72.95;;;54.95;;
21886;SDS011;11108;49.988;8.182;2023-09-19T10:13:28;76.63;;;56.15;;
21886;SDS011;11108;49.988;8.182;2023-09-19T10:15:55;81.70;;;56.58;;
21886;SDS011;11108;49.988;8.182;2023-09-19T10:18:24;85.13;;;59.65;;
21886;SDS011;11108;49.988;8.182;2023-09-19T10:20:50;97.50;;;61.15;;
21886;SDS011;11108;49.988;8.182;2023-09-19T10:23:16;95.78;;;60.45;;
21886;SDS011;11108;49.988;8.182;2023-09-19T10:25:47;91.15;;;62.53;;
21886;SDS011;11108;49.988;8.182;2023-09-19T10:28:13;90.45;;;60.05;;
21886;SDS011;11108;49.988;8.182;2023-09-19T10:30:41;87.85;;;58.72;;
21886;SDS011;11108;49.988;8.182;2023-09-19T10:33:09;79.25;;;57.15;;
21886;SDS011;11108;49.988;8.182;2023-09-19T10:35:36;73.65;;;56.45;;
21886;SDS011;11108;49.988;8.182;2023-09-19T10:38:05;87.85;;;58.13;;
21886;SDS011;11108;49.988;8.182;2023-09-19T10:40:32;81.22;;;56.53;;
21886;SDS011;11108;49.988;8.182;2023-09-19T10:43:04;80.22;;;55.05;;
21886;SDS011;11108;49.988;8.182;2023-09-19T10:45:30;77.40;;;54.78;;
21886;SDS011;11108;49.988;8.182;2023-09-19T10:47:56;84.55;;;56.10;;
21886;SDS011;11108;49.988;8.182;2023-09-19T10:50:21;81.22;;;55.08;;
21886;SDS011;11108;49.988;8.182;2023-09-19T10:52:47;80.78;;;55.38;;
21886;SDS011;11108;49.988;8.182;2023-09-19T10:55:18;80.18;;;57.60;;
21886;SDS011;11108;49.988;8.182;2023-09-19T10:57:44;77.95;;;53.25;;
21886;SDS011;11108;49.988;8.182;2023-09-19T11:00:11;77.68;;;52.42;;
21886;SDS011;11108;49.988;8.182;2023-09-19T11:05:41;74.32;;;49.00;;
21886;SDS011;11108;49.988;8.182;2023-09-19T11:08:10;70.40;;;49.08;;
21886;SDS011;11108;49.988;8.182;2023-09-19T11:10:46;64.05;;;47.78;;
21886;SDS011;11108;49.988;8.182;2023-09-19T11:13:28;72.97;;;47.13;;
21886;SDS011;11108;49.988;8.182;2023-09-19T11:21:47;66.05;;;42.13;;
21886;SDS011;11108;49.988;8.182;2023-09-19T11:26:44;65.07;;;42.90;;
21886;SDS011;11108;49.988;8.182;2023-09-19T11:29:28;57.45;;;40.35;;
21886;SDS011;11108;49.988;8.182;2023-09-19T11:31:54;59.45;;;39.05;;
21886;SDS011;11108;49.988;8.182;2023-09-19T11:39:38;53.05;;;37.72;;
21886;SDS011;11108;49.988;8.182;2023-09-19T11:44:48;47.42;;;33.45;;
21886;SDS011;11108;49.988;8.182;2023-09-19T11:47:17;52.55;;;35.10;;
21886;SDS011;11108;49.988;8.182;2023-09-19T11:49:43;50.20;;;34.58;;
21886;SDS011;11108;49.988;8.182;2023-09-19T11:52:09;51.38;;;34.13;;
21886;SDS011;11108;49.988;8.182;2023-09-19T11:54:35;52.65;;;32.83;;
21886;SDS011;11108;49.988;8.182;2023-09-19T11:57:02;46.53;;;31.33;;
21886;SDS011;11108;49.988;8.182;2023-09-19T11:59:28;43.03;;;30.98;;
21886;SDS011;11108;49.988;8.182;2023-09-19T12:01:55;47.85;;;30.70;;
21886;SDS011;11108;49.988;8.182;2023-09-19T12:06:58;45.85;;;29.10;;
21886;SDS011;11108;49.988;8.182;2023-09-19T12:09:24;44.58;;;29.17;;
21886;SDS011;11108;49.988;8.182;2023-09-19T12:11:50;41.38;;;28.23;;
21886;SDS011;11108;49.988;8.182;2023-09-19T12:14:23;41.97;;;25.98;;
21886;SDS011;11108;49.988;8.182;2023-09-19T12:16:56;37.55;;;26.33;;
21886;SDS011;11108;49.988;8.182;2023-09-19T12:19:22;40.03;;;25.48;;
21886;SDS011;11108;49.988;8.182;2023-09-19T12:22:01;35.97;;;25.25;;
21886;SDS011;11108;49.988;8.182;2023-09-19T12:24:29;34.55;;;23.92;;
21886;SDS011;11108;49.988;8.182;2023-09-19T12:27:00;37.65;;;23.00;;
21886;SDS011;11108;49.988;8.182;2023-09-19T12:29:26;35.92;;;23.67;;
21886;SDS011;11108;49.988;8.182;2023-09-19T12:31:58;34.75;;;24.38;;
21886;SDS011;11108;49.988;8.182;2023-09-19T12:34:25;34.25;;;21.48;;
21886;SDS011;11108;49.988;8.182;2023-09-19T12:37:05;31.25;;;21.98;;
21886;SDS011;11108;49.988;8.182;2023-09-19T12:39:40;32.20;;;22.50;;
21886;SDS011;11108;49.988;8.182;2023-09-19T12:42:06;32.72;;;20.67;;
21886;SDS011;11108;49.988;8.182;2023-09-19T12:44:34;32.80;;;21.50;;
21886;SDS011;11108;49.988;8.182;2023-09-19T12:47:00;29.60;;;19.08;;
21886;SDS011;11108;49.988;8.182;2023-09-19T12:49:26;30.77;;;20.55;;
21886;SDS011;11108;49.988;8.182;2023-09-19T12:51:54;27.92;;;19.45;;
21886;SDS011;11108;49.988;8.182;2023-09-19T12:54:19;29.27;;;20.02;;
21886;SDS011;11108;49.988;8.182;2023-09-19T12:56:45;26.05;;;17.73;;
21886;SDS011;11108;49.988;8.182;2023-09-19T12:59:13;26.58;;;18.35;;
21886;SDS011;11108;49.988;8.182;2023-09-19T13:01:39;28.15;;;18.85;;
21886;SDS011;11108;49.988;8.182;2023-09-19T13:04:18;25.95;;;17.67;;
21886;SDS011;11108;49.988;8.182;2023-09-19T13:06:48;24.58;;;16.77;;
21886;SDS011;11108;49.988;8.182;2023-09-19T13:09:14;24.20;;;16.30;;
21886;SDS011;11108;49.988;8.182;2023-09-19T13:11:40;26.02;;;16.50;;
21886;SDS011;11108;49.988;8.182;2023-09-19T13:14:23;23.27;;;15.60;;
21886;SDS011;11108;49.988;8.182;2023-09-19T13:17:04;19.95;;;14.13;;
21886;SDS011;11108;49.988;8.182;2023-09-19T13:19:35;23.55;;;15.00;;
21886;SDS011;11108;49.988;8.182;2023-09-19T13:22:00;20.25;;;14.40;;
21886;SDS011;11108;49.988;8.182;2023-09-19T13:24:26;24.00;;;14.65;;
21886;SDS011;11108;49.988;8.182;2023-09-19T13:26:52;21.63;;;14.93;;
21886;SDS011;11108;49.988;8.182;2023-09-19T13:29:17;19.70;;;13.82;;
21886;SDS011;11108;49.988;8.182;2023-09-19T13:31:50;20.67;;;13.18;;
21886;SDS011;11108;49.988;8.182;2023-09-19T13:34:16;19.10;;;13.52;;
21886;SDS011;11108;49.988;8.182;2023-09-19T13:36:42;22.27;;;13.70;;
21886;SDS011;11108;49.988;8.182;2023-09-19T13:39:07;20.60;;;12.98;;
21886;SDS011;11108;49.988;8.182;2023-09-19T13:41:34;18.77;;;13.20;;
21886;SDS011;11108;49.988;8.182;2023-09-19T13:44:02;17.60;;;12.13;;
21886;SDS011;11108;49.988;8.182;2023-09-19T13:46:27;22.13;;;12.68;;
21886;SDS011;11108;49.988;8.182;2023-09-19T13:48:52;17.58;;;12.15;;
21886;SDS011;11108;49.988;8.182;2023-09-19T13:51:19;15.85;;;11.60;;
21886;SDS011;11108;49.988;8.182;2023-09-19T13:53:46;16.65;;;11.38;;
21886;SDS011;11108;49.988;8.182;2023-09-19T13:56:11;16.73;;;11.10;;
21886;SDS011;11108;49.988;8.182;2023-09-19T13:58:36;16.60;;;10.48;;
21886;SDS011;11108;49.988;8.182;2023-09-19T14:01:01;15.57;;;10.70;;
21886;SDS011;11108;49.988;8.182;2023-09-19T14:03:26;15.18;;;10.57;;
21886;SDS011;11108;49.988;8.182;2023-09-19T14:05:53;14.70;;;10.63;;
21886;SDS011;11108;49.988;8.182;2023-09-19T14:08:18;15.30;;;10.02;;
21886;SDS011;11108;49.988;8.182;2023-09-19T14:10:43;12.75;;;9.13;;
21886;SDS011;11108;49.988;8.182;2023-09-19T14:13:09;13.70;;;9.30;;
21886;SDS011;11108;49.988;8.182;2023-09-19T14:15:36;16.38;;;9.68;;
21886;SDS011;11108;49.988;8.182;2023-09-19T14:18:03;13.90;;;8.73;;
21886;SDS011;11108;49.988;8.182;2023-09-19T14:20:28;12.70;;;9.02;;
21886;SDS011;11108;49.988;8.182;2023-09-19T14:22:55;12.05;;;8.00;;
21886;SDS011;11108;49.988;8.182;2023-09-19T14:25:20;14.05;;;8.43;;
21886;SDS011;11108;49.988;8.182;2023-09-19T14:27:46;11.25;;;8.35;;
21886;SDS011;11108;49.988;8.182;2023-09-19T14:30:12;12.48;;;8.52;;
21886;SDS011;11108;49.988;8.182;2023-09-19T14:32:37;11.57;;;7.85;;
21886;SDS011;11108;49.988;8.182;2023-09-19T14:35:04;8.90;;;7.18;;
21886;SDS011;11108;49.988;8.182;2023-09-19T14:37:29;12.95;;;8.23;;
21886;SDS011;11108;49.988;8.182;2023-09-19T14:39:56;10.55;;;7.18;;
21886;SDS011;11108;49.988;8.182;2023-09-19T14:42:21;10.70;;;7.38;;
21886;SDS011;11108;49.988;8.182;2023-09-19T14:44:46;8.88;;;6.90;;
21886;SDS011;11108;49.988;8.182;2023-09-19T14:47:13;10.55;;;7.22;;
21886;SDS011;11108;49.988;8.182;2023-09-19T14:49:39;8.60;;;6.65;;
21886;SDS011;11108;49.988;8.182;2023-09-19T14:52:06;8.77;;;6.82;;
21886;SDS011;11108;49.988;8.182;2023-09-19T14:54:32;9.35;;;6.60;;
21886;SDS011;11108;49.988;8.182;2023-09-19T14:56:58;9.48;;;6.65;;
21886;SDS011;11108;49.988;8.182;2023-09-19T14:59:32;8.27;;;6.63;;
21886;SDS011;11108;49.988;8.182;2023-09-19T15:01:58;7.60;;;6.25;;
21886;SDS011;11108;49.988;8.182;2023-09-19T15:04:23;7.97;;;5.45;;
21886;SDS011;11108;49.988;8.182;2023-09-19T15:06:49;7.93;;;5.97;;
21886;SDS011;11108;49.988;8.182;2023-09-19T15:09:14;7.28;;;5.57;;
21886;SDS011;11108;49.988;8.182;2023-09-19T15:11:40;8.80;;;6.13;;
21886;SDS011;11108;49.988;8.182;2023-09-19T15:14:05;7.88;;;5.72;;
21886;SDS011;11108;49.988;8.182;2023-09-19T15:16:30;8.90;;;5.70;;
21886;SDS011;11108;49.988;8.182;2023-09-19T15:18:56;9.30;;;5.63;;
21886;SDS011;11108;49.988;8.182;2023-09-19T15:21:21;8.07;;;4.75;;